Terminal Aerodrome Forecast
Issued by NWS

Home | Current Version | Previous Version | Text Only | Print | Product List | Glossary On
Versions: 1 2 3 4 5 6 7 8 9 10 11 12 13 14 15 16
000
FTUS44 KCRP 250537
TAFALI
TAF
KALI 250537Z 2506/2606 15009KT P6SM FEW015
     FM250900 16010KT P6SM BKN015
     FM251400 15014G18KT P6SM VCSH BKN020 OVC100
     FM251700 15017G23KT P6SM VCTS SCT028CB BKN050 PROB30 2517/2523
      VRB25G35KT 3SM TSRA BR BKN028CB OVC040
     FM252300 14013KT P6SM VCTS SCT025 BKN040CB
      TEMPO 2523/2602 VRB25G35KT 2SM +TSRA BR BKN015CB OVC040
     FM260200 14009KT P6SM SCT025 BKN120=

USA.gov is the U.S. government's official web portal to all federal, state and local government web resources and services.